Time;durP1;ratioP1;P1;durP2;ratioP2;P2;SDS_P1;SDS_P2;PMS_P1;PMS_P2;Temp;Humidity;BMP_temperature;BMP_pressure;BME280_temperature;BME280_humidity;BME280_pressure;Samples;Min_cycle;Max_cycle;Signal;HPM_P1;HPM_P2
2022/11/29 00:00:54;;;;;;;46.97;27.33;;;;;;;4.94;98.44;101620.38;4992487;28;20226;-74
2022/11/29 00:03:19;;;;;;;44.20;26.93;;;;;;;4.91;98.03;101626.16;4992304;28;20850;-74
2022/11/29 00:05:45;;;;;;;44.87;26.13;;;;;;;4.91;98.09;101625.28;4991868;28;20276;-74
2022/11/29 00:08:11;;;;;;;46.40;26.43;;;;;;;4.93;98.38;101621.16;4992223;28;20199;-75
2022/11/29 00:10:37;;;;;;;48.33;28.00;;;;;;;4.93;98.36;101633.84;4994067;28;20221;-75
2022/11/29 00:13:03;;;;;;;42.90;27.77;;;;;;;4.88;98.12;101625.97;4990749;28;20191;-75
2022/11/29 00:15:29;;;;;;;48.37;26.63;;;;;;;4.90;98.35;101626.06;4990594;28;20184;-75
2022/11/29 00:17:54;;;;;;;46.00;26.67;;;;;;;4.89;98.11;101622.69;4988173;28;20695;-74
2022/11/29 00:20:20;;;;;;;44.03;26.00;;;;;;;4.91;98.20;101626.16;4990655;28;20226;-74
2022/11/29 00:22:45;;;;;;;46.23;27.23;;;;;;;4.92;98.26;101630.44;4990852;28;20208;-74
2022/11/29 00:25:10;;;;;;;43.53;26.43;;;;;;;4.90;98.14;101634.56;4991823;28;20612;-75
2022/11/29 00:27:36;;;;;;;44.80;27.23;;;;;;;4.89;98.57;101637.00;4991804;28;20611;-75
2022/11/29 00:30:02;;;;;;;44.57;26.27;;;;;;;4.88;97.69;101633.59;4991574;28;20652;-74
2022/11/29 00:32:27;;;;;;;45.67;27.07;;;;;;;4.89;98.18;101629.41;4990639;28;20669;-74
2022/11/29 00:34:52;;;;;;;48.57;27.73;;;;;;;4.88;98.48;101625.13;4991312;28;20194;-74
2022/11/29 00:37:18;;;;;;;46.70;27.50;;;;;;;4.87;97.99;101631.84;4991391;28;20200;-74
2022/11/29 00:39:43;;;;;;;50.60;28.00;;;;;;;4.86;98.04;101627.56;4991669;28;20220;-72
2022/11/29 00:42:09;;;;;;;44.23;26.63;;;;;;;4.85;98.49;101630.03;4990846;28;20257;-75
2022/11/29 00:44:34;;;;;;;48.23;27.30;;;;;;;4.86;98.01;101629.22;4991145;28;20370;-72
2022/11/29 00:47:00;;;;;;;44.77;27.60;;;;;;;4.85;98.67;101633.44;4990773;28;20266;-72
2022/11/29 00:49:25;;;;;;;48.00;27.00;;;;;;;4.85;98.17;101627.50;4972788;28;20271;-74
2022/11/29 00:51:50;;;;;;;46.87;27.83;;;;;;;4.84;97.95;101628.28;4990642;28;20744;-74
2022/11/29 00:54:16;;;;;;;52.30;28.50;;;;;;;4.83;98.21;101624.88;4990694;28;20904;-74
2022/11/29 00:56:42;;;;;;;47.50;28.10;;;;;;;4.83;97.97;101624.00;4990744;28;20187;-75
2022/11/29 00:59:08;;;;;;;49.23;28.90;;;;;;;4.82;97.85;101625.66;4990714;28;20184;-75
2022/11/29 01:01:33;;;;;;;49.80;29.03;;;;;;;4.84;97.67;101621.53;4989449;28;20191;-74
2022/11/29 01:04:00;;;;;;;47.63;28.73;;;;;;;4.81;97.78;101629.00;4990661;28;20219;-74
2022/11/29 01:06:26;;;;;;;51.27;29.30;;;;;;;4.81;97.93;101617.97;4990645;28;20215;-71
2022/11/29 01:08:52;;;;;;;48.07;28.57;;;;;;;4.82;97.95;101625.66;4990495;28;20246;-72
2022/11/29 01:11:24;;;;;;;50.73;28.97;;;;;;;4.81;97.88;101621.38;4990465;28;20582;-74
2022/11/29 01:13:52;;;;;;;50.53;29.43;;;;;;;4.80;97.94;101627.25;4991169;28;20207;-72
2022/11/29 01:16:18;;;;;;;49.83;29.20;;;;;;;4.79;98.00;101622.09;4989823;28;20187;-74
2022/11/29 01:18:44;;;;;;;51.03;29.23;;;;;;;4.79;97.96;101627.16;4991097;28;20195;-72
2022/11/29 01:21:16;;;;;;;56.50;30.87;;;;;;;4.78;98.42;101625.44;4991148;28;20215;-72
2022/11/29 01:23:43;;;;;;;51.37;29.50;;;;;;;4.76;97.92;101625.34;4982811;28;20215;-74
2022/11/29 01:26:17;;;;;;;52.43;30.27;;;;;;;4.73;97.83;101622.63;4990587;28;20198;-75
2022/11/29 01:28:46;;;;;;;52.93;31.13;;;;;;;4.72;97.96;101623.41;4997908;28;20342;-72
2022/11/29 01:31:17;;;;;;;55.83;31.03;;;;;;;4.70;97.88;101630.03;4989607;28;20956;-71
2022/11/29 01:33:42;;;;;;;57.60;30.00;;;;;;;4.71;97.98;101630.94;4973168;28;20190;-72
2022/11/29 01:36:09;;;;;;;48.90;29.40;;;;;;;4.68;97.84;101628.22;4990763;28;20239;-74
2022/11/29 01:38:35;;;;;;;54.87;31.60;;;;;;;4.70;98.27;101634.28;4990816;28;20258;-73
2022/11/29 01:41:04;;;;;;;53.00;30.50;;;;;;;4.68;98.23;101633.28;4989461;28;20295;-72
2022/11/29 01:43:30;;;;;;;53.33;29.57;;;;;;;4.66;98.24;101639.97;4990734;28;20602;-74
2022/11/29 01:45:56;;;;;;;55.80;30.67;;;;;;;4.59;98.34;101633.66;4990147;28;20187;-73
2022/11/29 01:48:25;;;;;;;57.63;31.23;;;;;;;4.62;98.33;101633.84;4990682;28;20674;-74
2022/11/29 01:50:53;;;;;;;54.83;30.17;;;;;;;4.61;98.03;101633.75;4988814;28;20608;-74
2022/11/29 01:53:19;;;;;;;54.23;31.83;;;;;;;4.60;98.24;101647.22;4989217;28;20539;-74
2022/11/29 01:55:49;;;;;;;55.33;32.17;;;;;;;4.61;97.73;101643.91;4990268;28;20191;-74
2022/11/29 01:58:15;;;;;;;57.90;31.43;;;;;;;4.60;98.13;101645.56;4990565;28;20184;-73
2022/11/29 02:00:41;;;;;;;56.63;30.97;;;;;;;4.58;98.26;101641.19;4990287;28;20219;-74
2022/11/29 02:03:15;;;;;;;52.40;29.30;;;;;;;4.57;98.10;101636.91;4989118;28;20211;-73
2022/11/29 02:05:47;;;;;;;56.30;31.37;;;;;;;4.57;98.43;101647.06;4990340;28;20188;-74
2022/11/29 02:08:15;;;;;;;58.80;32.37;;;;;;;4.57;98.05;101645.41;4989055;28;20279;-73
2022/11/29 02:11:09;;;;;;;58.73;32.27;;;;;;;4.57;98.20;101647.06;4990407;28;20222;-72
2022/11/29 02:13:53;;;;;;;57.23;30.63;;;;;;;4.56;98.42;101648.69;4989166;28;20207;-73
2022/11/29 02:16:25;;;;;;;56.47;31.20;;;;;;;4.51;98.03;101646.72;4985388;28;20172;-75
2022/11/29 02:19:11;;;;;;;55.33;30.77;;;;;;;4.50;98.32;101643.28;4990856;28;20812;-75
2022/11/29 02:21:37;;;;;;;56.60;30.30;;;;;;;4.50;98.34;101645.84;4985315;28;20215;-74
2022/11/29 02:24:21;;;;;;;56.23;33.13;;;;;;;4.50;98.25;101652.56;4971783;28;20223;-75
2022/11/29 02:27:23;;;;;;;61.67;31.90;;;;;;;4.49;98.23;101653.34;4986729;28;20196;-75
2022/11/29 02:30:05;;;;;;;63.17;33.27;;;;;;;4.47;98.21;101648.19;4986122;28;20215;-74
2022/11/29 02:33:15;;;;;;;60.17;33.60;;;;;;;4.48;98.33;101655.03;4982112;28;20227;-75
2022/11/29 02:35:43;;;;;;;58.37;32.10;;;;;;;4.46;98.35;101659.13;4966713;28;20188;-73
2022/11/29 02:38:23;;;;;;;64.57;32.60;;;;;;;4.45;98.49;101649.78;4988816;28;20223;-75
2022/11/29 02:40:52;;;;;;;64.13;33.50;;;;;;;4.47;98.97;101652.41;4991857;28;20948;-75
2022/11/29 02:43:36;;;;;;;61.03;33.63;;;;;;;4.48;98.08;101655.03;4977157;28;20303;-75
2022/11/29 02:46:06;;;;;;;59.43;33.40;;;;;;;4.45;97.89;101659.03;4992697;28;20624;-75
2022/11/29 02:48:39;;;;;;;62.63;33.37;;;;;;;4.45;98.37;101659.03;4985865;28;20549;-75
2022/11/29 02:51:19;;;;;;;62.97;34.17;;;;;;;4.45;98.23;101662.44;4986749;28;20235;-74
2022/11/29 02:54:15;;;;;;;62.37;33.70;;;;;;;4.46;98.46;101663.34;4989752;28;20191;-74
2022/11/29 02:56:58;;;;;;;58.30;32.57;;;;;;;4.42;98.83;101666.47;4990093;28;20199;-73
2022/11/29 02:59:41;;;;;;;62.20;33.73;;;;;;;4.44;98.50;101667.44;4990599;28;20211;-75
2022/11/29 03:02:45;;;;;;;61.07;33.33;;;;;;;4.45;98.49;101662.44;4990256;28;20835;-75
2022/11/29 03:05:37;;;;;;;65.03;34.70;;;;;;;4.44;98.38;101670.84;4978486;28;20207;-75
2022/11/29 03:08:21;;;;;;;67.83;34.97;;;;;;;4.43;98.28;101666.56;4991735;28;20733;-75
2022/11/29 03:11:16;;;;;;;62.80;33.63;;;;;;;4.45;98.40;101671.69;4991917;28;20216;-75
2022/11/29 03:14:00;;;;;;;59.47;32.43;;;;;;;4.44;98.50;101678.47;4988751;28;20180;-75
2022/11/29 03:16:44;;;;;;;61.27;34.30;;;;;;;4.47;98.30;101673.53;4988940;28;20800;-75
2022/11/29 03:19:30;;;;;;;61.00;33.50;;;;;;;4.43;98.49;101676.72;4987488;28;20221;-73
2022/11/29 03:22:23;;;;;;;62.50;32.83;;;;;;;4.43;98.60;101685.97;4986011;28;20242;-75
2022/11/29 03:25:11;;;;;;;61.13;32.97;;;;;;;4.43;98.20;101676.72;4979165;28;20299;-75
2022/11/29 03:27:46;;;;;;;62.60;33.73;;;;;;;4.45;98.63;101674.25;4991123;28;20595;-75
2022/11/29 03:30:15;;;;;;;64.17;32.70;;;;;;;4.44;98.76;101687.72;4991069;28;20214;-74
2022/11/29 03:32:59;;;;;;;61.33;32.77;;;;;;;4.43;98.59;101688.50;4985313;28;20675;-73
2022/11/29 03:35:49;;;;;;;65.47;34.23;;;;;;;4.44;98.74;101688.59;4990950;28;20601;-74
2022/11/29 03:38:39;;;;;;;58.57;31.63;;;;;;;4.47;98.70;101690.44;5004138;28;20283;-74
2022/11/29 03:41:16;;;;;;;59.30;31.77;;;;;;;4.43;98.74;101691.94;4991148;28;20266;-74
2022/11/29 03:43:47;;;;;;;62.03;33.57;;;;;;;4.45;98.62;101694.53;4988668;28;20207;-74
2022/11/29 03:46:41;;;;;;;59.30;32.73;;;;;;;4.43;98.54;101699.53;4991184;28;20192;-75
2022/11/29 03:49:17;;;;;;;65.27;33.43;;;;;;;4.46;99.12;101692.06;4989451;28;20282;-73
2022/11/29 03:52:13;;;;;;;62.33;32.83;;;;;;;4.48;98.44;101699.78;4989879;28;20270;-74
2022/11/29 03:55:09;;;;;;;69.93;33.47;;;;;;;4.46;98.51;101708.97;4987474;28;20184;-74
2022/11/29 03:57:47;;;;;;;59.37;34.23;;;;;;;4.44;99.04;101703.81;4988288;28;20203;-74
2022/11/29 04:00:13;;;;;;;60.07;33.20;;;;;;;4.45;98.51;101697.94;4989171;28;20216;-73
2022/11/29 04:02:44;;;;;;;59.00;32.37;;;;;;;4.46;98.76;101693.75;4990589;28;20242;-75
2022/11/29 04:05:18;;;;;;;58.87;32.00;;;;;;;4.49;98.21;101702.41;5005172;28;20202;-75
2022/11/29 04:07:53;;;;;;;57.90;30.63;;;;;;;4.44;98.34;101706.34;4986568;28;20552;-74
2022/11/29 04:10:47;;;;;;;61.43;32.50;;;;;;;4.42;98.24;101697.75;4990041;28;20212;-75
2022/11/29 04:13:34;;;;;;;61.43;33.47;;;;;;;4.44;98.43;101700.38;4990339;28;20171;-75
2022/11/29 04:16:25;;;;;;;64.63;34.90;;;;;;;4.44;98.63;101701.28;4989577;28;20223;-75
2022/11/29 04:19:11;;;;;;;61.80;31.70;;;;;;;4.42;98.58;101707.91;4986659;28;20198;-75
2022/11/29 04:21:50;;;;;;;62.60;33.43;;;;;;;4.40;98.30;101708.59;4982814;28;20192;-75
2022/11/29 04:24:37;;;;;;;64.33;33.33;;;;;;;4.41;98.55;101713.75;4985412;28;20306;-75
2022/11/29 04:27:21;;;;;;;57.17;31.93;;;;;;;4.39;98.84;101710.28;4990641;28;20200;-75
2022/11/29 04:29:49;;;;;;;61.70;33.50;;;;;;;4.39;98.57;101711.94;4988926;28;20219;-75
2022/11/29 04:32:36;;;;;;;54.60;32.47;;;;;;;4.37;98.36;101721.13;4989201;28;20195;-74
2022/11/29 04:35:35;;;;;;;61.37;33.63;;;;;;;4.36;98.39;101724.41;4996968;28;20192;-75
2022/11/29 04:38:33;;;;;;;58.07;32.30;;;;;;;4.37;98.80;101721.97;4981982;28;20188;-75
2022/11/29 04:41:20;;;;;;;61.50;32.57;;;;;;;4.36;98.58;101724.41;4990259;28;20250;-74
2022/11/29 04:44:24;;;;;;;60.43;32.23;;;;;;;4.32;99.11;101723.38;4982005;28;20220;-75
2022/11/29 04:47:16;;;;;;;57.50;32.70;;;;;;;4.33;98.79;101727.66;4987534;28;20192;-75
2022/11/29 04:49:56;;;;;;;63.77;34.87;;;;;;;4.33;99.01;101731.84;4982103;28;20212;-74
2022/11/29 04:52:27;;;;;;;58.73;33.73;;;;;;;4.33;98.59;101737.78;4988897;28;20201;-75
2022/11/29 04:55:20;;;;;;;63.27;33.37;;;;;;;4.28;98.78;101743.38;4986595;28;20270;-75
2022/11/29 04:57:54;;;;;;;55.47;32.03;;;;;;;4.29;98.61;101746.03;4984261;28;20207;-75
2022/11/29 05:00:23;;;;;;;61.53;34.07;;;;;;;4.30;98.80;101751.94;4987237;28;20718;-75
2022/11/29 05:03:00;;;;;;;65.30;34.20;;;;;;;4.30;98.76;101752.84;4984674;28;20231;-74
2022/11/29 05:05:45;;;;;;;60.00;34.20;;;;;;;4.31;98.34;101764.72;4984345;28;20191;-75
2022/11/29 05:08:26;;;;;;;58.47;32.50;;;;;;;4.32;98.57;101769.00;4984548;28;20188;-74
2022/11/29 05:11:04;;;;;;;57.70;33.00;;;;;;;4.32;98.89;101763.91;4995478;28;20236;-74
2022/11/29 05:14:06;;;;;;;58.73;33.50;;;;;;;4.31;98.86;101768.91;4990468;28;20226;-74
2022/11/29 05:16:44;;;;;;;58.20;33.17;;;;;;;4.28;98.84;101768.75;4989575;28;20202;-75
2022/11/29 05:19:47;;;;;;;65.43;34.47;;;;;;;4.29;98.71;101768.84;4988963;28;20206;-75
2022/11/29 05:22:23;;;;;;;63.10;35.20;;;;;;;4.28;98.84;101766.19;4988243;28;20182;-74
2022/11/29 05:25:03;;;;;;;63.43;35.47;;;;;;;4.24;99.19;101775.25;4988408;28;20215;-74
2022/11/29 05:27:45;;;;;;;65.00;34.40;;;;;;;4.22;99.34;101773.41;4989347;28;20278;-75
2022/11/29 05:30:18;;;;;;;62.80;35.90;;;;;;;4.24;98.85;101776.94;4987206;28;20273;-74
2022/11/29 05:32:58;;;;;;;67.43;34.77;;;;;;;4.24;98.96;101780.31;4988714;28;20195;-75
2022/11/29 05:35:50;;;;;;;65.83;34.13;;;;;;;4.25;99.02;101779.56;4988805;28;20188;-75
2022/11/29 05:38:34;;;;;;;59.93;34.63;;;;;;;4.25;98.86;101778.69;4986830;28;20661;-75
2022/11/29 05:41:11;;;;;;;59.50;34.33;;;;;;;4.25;99.06;101787.19;4988055;28;20366;-75
2022/11/29 05:44:10;;;;;;;64.27;36.13;;;;;;;4.25;98.82;101782.09;4988905;28;20562;-74
2022/11/29 05:46:54;;;;;;;60.20;35.03;;;;;;;4.25;99.34;101783.75;4988213;28;20192;-75
2022/11/29 05:49:20;;;;;;;63.97;34.37;;;;;;;4.24;99.39;101785.41;4997030;28;20216;-75
2022/11/29 05:51:57;;;;;;;61.80;35.53;;;;;;;4.23;99.00;101786.19;4990113;28;20203;-74
2022/11/29 05:54:34;;;;;;;65.83;35.27;;;;;;;4.22;99.37;101792.03;4989425;28;20195;-74
2022/11/29 05:57:18;;;;;;;62.73;35.07;;;;;;;4.24;99.08;101797.22;4989892;28;20195;-74
2022/11/29 05:59:46;;;;;;;62.63;35.03;;;;;;;4.22;99.04;101797.13;4972632;28;20685;-73
2022/11/29 06:02:18;;;;;;;63.30;34.77;;;;;;;4.24;99.23;101805.66;4987911;28;20187;-74
2022/11/29 06:04:56;;;;;;;62.07;35.80;;;;;;;4.26;99.50;101800.69;4987185;28;20203;-75
2022/11/29 06:07:28;;;;;;;64.67;34.87;;;;;;;4.27;99.24;101807.50;4988769;28;20192;-73
2022/11/29 06:10:04;;;;;;;63.83;35.73;;;;;;;4.27;99.28;101808.41;4989848;28;20219;-74
2022/11/29 06:12:34;;;;;;;64.77;35.50;;;;;;;4.27;99.18;101813.47;4993775;28;20202;-74
2022/11/29 06:15:30;;;;;;;67.40;35.40;;;;;;;4.29;99.12;101813.56;4993498;28;20226;-74
2022/11/29 06:17:58;;;;;;;66.90;35.77;;;;;;;4.28;99.10;101817.75;4993471;28;20234;-74
2022/11/29 06:20:31;;;;;;;68.57;36.47;;;;;;;4.27;99.05;101810.94;4992095;28;21265;-74
2022/11/29 06:23:23;;;;;;;62.83;35.07;;;;;;;4.27;99.09;101818.53;4993720;28;20215;-74
2022/11/29 06:26:16;;;;;;;60.70;34.53;;;;;;;4.30;99.48;101820.38;4992342;28;20227;-74
2022/11/29 06:29:19;;;;;;;63.13;35.37;;;;;;;4.30;99.04;101828.88;4993473;28;20227;-75
2022/11/29 06:31:49;;;;;;;61.50;35.50;;;;;;;4.29;99.12;101827.13;4991474;28;20208;-74
2022/11/29 06:34:31;;;;;;;61.13;35.50;;;;;;;4.29;99.53;101823.72;4991908;28;20192;-73
2022/11/29 06:37:03;;;;;;;67.30;37.57;;;;;;;4.30;99.37;101839.00;4991003;28;20202;-74
2022/11/29 06:39:29;;;;;;;61.33;34.27;;;;;;;4.29;99.35;101839.81;4993481;28;20577;-74
2022/11/29 06:41:54;;;;;;;62.40;35.17;;;;;;;4.29;99.29;101844.88;4993632;28;20200;-73
2022/11/29 06:44:20;;;;;;;60.40;36.97;;;;;;;4.33;99.12;101853.53;4993482;28;20240;-74
2022/11/29 06:46:51;;;;;;;63.67;36.73;;;;;;;4.33;99.29;101843.38;4991846;28;20188;-74
2022/11/29 06:49:28;;;;;;;63.80;36.03;;;;;;;4.35;99.42;101850.31;4988847;28;20261;-73
2022/11/29 06:52:22;;;;;;;58.90;34.47;;;;;;;4.36;99.12;101848.63;4991654;28;20206;-75
2022/11/29 06:54:50;;;;;;;60.13;34.77;;;;;;;4.36;98.83;101858.75;5009325;28;20203;-74
2022/11/29 06:57:28;;;;;;;63.53;35.53;;;;;;;4.36;99.00;101862.19;4991213;28;20188;-74
2022/11/29 06:59:53;;;;;;;60.57;34.03;;;;;;;4.36;99.20;101858.75;4989360;28;20207;-74
2022/11/29 07:02:37;;;;;;;62.53;36.33;;;;;;;4.33;99.45;101866.19;4988200;28;20195;-74
2022/11/29 07:05:29;;;;;;;61.73;35.60;;;;;;;4.33;99.09;101872.13;4992737;28;20995;-75
2022/11/29 07:08:01;;;;;;;57.37;34.13;;;;;;;4.34;99.28;101870.47;4992420;28;20250;-74
2022/11/29 07:10:29;;;;;;;63.20;36.33;;;;;;;4.37;99.31;101875.75;4991487;28;20223;-74
2022/11/29 07:12:55;;;;;;;62.70;35.40;;;;;;;4.39;99.15;101875.06;4992715;28;20188;-74
2022/11/29 07:15:21;;;;;;;63.87;35.33;;;;;;;4.41;99.08;101878.53;4992748;28;20659;-73
2022/11/29 07:18:02;;;;;;;59.53;35.47;;;;;;;4.40;99.01;101871.72;4992358;28;20194;-75
2022/11/29 07:20:43;;;;;;;63.87;37.40;;;;;;;4.41;99.03;101880.19;4991163;28;20274;-73
2022/11/29 07:23:26;;;;;;;60.80;35.13;;;;;;;4.44;99.06;101880.38;4989576;28;20212;-75
2022/11/29 07:26:16;;;;;;;59.80;36.53;;;;;;;4.41;98.93;101875.13;4991857;28;20327;-74
2022/11/29 07:29:07;;;;;;;65.20;36.43;;;;;;;4.42;99.23;101880.28;4990293;28;20711;-74
2022/11/29 07:31:54;;;;;;;63.80;36.07;;;;;;;4.43;99.02;101874.47;4988615;28;20198;-75
2022/11/29 07:34:25;;;;;;;58.27;36.20;;;;;;;4.43;99.15;101881.19;4987827;28;20254;-75
2022/11/29 07:36:59;;;;;;;59.00;35.40;;;;;;;4.45;99.19;101882.13;4989102;28;20203;-74
2022/11/29 07:39:40;;;;;;;58.50;35.17;;;;;;;4.45;99.32;101882.13;4988040;28;20215;-75
2022/11/29 07:42:21;;;;;;;62.97;35.40;;;;;;;4.46;99.29;101894.91;4985426;28;20206;-75
2022/11/29 07:44:58;;;;;;;57.00;35.10;;;;;;;4.47;99.13;101890.72;4985623;28;20212;-74
2022/11/29 07:47:23;;;;;;;64.13;36.33;;;;;;;4.46;99.15;101894.06;4984301;28;20210;-75
2022/11/29 07:49:49;;;;;;;63.77;35.93;;;;;;;4.44;99.51;101893.94;4985156;28;20694;-74
2022/11/29 07:52:15;;;;;;;60.10;35.17;;;;;;;4.47;99.29;101896.66;4970444;28;20254;-75
2022/11/29 07:54:40;;;;;;;63.30;37.17;;;;;;;4.47;98.88;101901.72;4984443;28;20248;-75
2022/11/29 07:57:06;;;;;;;62.53;36.77;;;;;;;4.49;98.95;101909.41;4991406;28;20282;-75
2022/11/29 07:59:31;;;;;;;63.87;37.20;;;;;;;4.50;98.91;101919.66;4990394;28;20220;-74
2022/11/29 08:01:57;;;;;;;59.80;35.70;;;;;;;4.53;98.94;101921.50;4990749;28;20199;-75
2022/11/29 08:04:23;;;;;;;65.70;37.23;;;;;;;4.53;99.06;101913.91;4991379;28;20733;-75
2022/11/29 08:06:48;;;;;;;66.90;37.23;;;;;;;4.54;98.75;101920.72;4990024;28;20261;-75
2022/11/29 08:09:14;;;;;;;61.07;36.13;;;;;;;4.56;98.77;101926.78;4990876;28;20188;-74
2022/11/29 08:11:39;;;;;;;58.83;34.87;;;;;;;4.57;98.75;101924.34;4987876;28;20191;-75
2022/11/29 08:14:05;;;;;;;58.10;36.07;;;;;;;4.58;98.67;101922.66;4987189;28;20278;-75
2022/11/29 08:16:31;;;;;;;58.07;34.10;;;;;;;4.60;98.82;101924.50;4989606;28;20226;-74
2022/11/29 08:18:56;;;;;;;62.40;35.90;;;;;;;4.60;98.72;101926.19;4986404;28;20719;-74
2022/11/29 08:21:22;;;;;;;59.97;37.13;;;;;;;4.59;98.46;101922.75;4988440;28;20648;-75
2022/11/29 08:23:49;;;;;;;60.80;36.27;;;;;;;4.56;98.48;101917.50;4985577;28;20689;-75
2022/11/29 08:26:15;;;;;;;62.67;35.90;;;;;;;4.59;98.43;101924.41;4988813;28;20200;-74
2022/11/29 08:28:41;;;;;;;63.20;35.87;;;;;;;4.61;98.84;101921.16;4986252;28;20290;-73
2022/11/29 08:31:09;;;;;;;59.90;36.77;;;;;;;4.59;98.46;101914.25;4985505;28;20936;-74
2022/11/29 08:33:36;;;;;;;62.53;35.23;;;;;;;4.57;98.06;101924.34;4987889;28;20279;-72
2022/11/29 08:36:07;;;;;;;60.20;35.50;;;;;;;4.60;98.13;101923.66;4990683;28;20234;-74
2022/11/29 08:38:32;;;;;;;57.10;34.47;;;;;;;4.61;98.23;101921.16;4991079;28;20278;-75
2022/11/29 08:41:02;;;;;;;62.77;35.50;;;;;;;4.67;98.24;101929.16;4971541;28;20704;-74
2022/11/29 08:43:28;;;;;;;60.93;34.43;;;;;;;4.70;98.64;101934.41;4964348;28;20239;-74
2022/11/29 08:45:54;;;;;;;59.70;34.70;;;;;;;4.66;98.43;101935.03;4983427;28;20195;-73
2022/11/29 08:48:19;;;;;;;59.73;35.37;;;;;;;4.71;97.85;101937.84;4981195;28;20289;-74
2022/11/29 08:50:48;;;;;;;61.43;36.03;;;;;;;4.71;98.01;101933.66;4970903;28;20592;-74
2022/11/29 08:55:58;;;;;;;60.63;35.67;;;;;;;4.74;97.98;101932.97;4988178;28;20704;-73
2022/11/29 08:58:24;;;;;;;56.33;33.80;;;;;;;4.78;97.79;101940.81;4994745;28;20219;-75
2022/11/29 09:00:51;;;;;;;60.47;34.80;;;;;;;4.80;97.86;101938.38;4977564;28;20216;-74
2022/11/29 09:06:05;;;;;;;61.40;35.27;;;;;;;4.85;97.55;101931.91;4989601;28;20207;-74
2022/11/29 09:08:30;;;;;;;55.97;34.80;;;;;;;4.85;97.24;101932.81;4986961;28;20198;-75
2022/11/29 09:10:56;;;;;;;62.13;35.33;;;;;;;4.86;97.06;101943.81;4988788;28;20219;-74
2022/11/29 09:13:21;;;;;;;66.47;37.50;;;;;;;4.88;97.37;101937.19;4988833;28;20184;-74
2022/11/29 09:15:47;;;;;;;57.73;34.37;;;;;;;4.89;97.25;101938.94;4988643;28;20261;-74
2022/11/29 09:18:12;;;;;;;59.50;36.20;;;;;;;4.89;97.03;101936.41;4989483;28;20649;-73
2022/11/29 09:20:42;;;;;;;60.47;35.63;;;;;;;4.89;97.24;101954.16;4989825;28;20218;-73
2022/11/29 09:23:08;;;;;;;63.17;37.73;;;;;;;4.86;96.85;101952.31;4988860;28;20270;-73
2022/11/29 09:25:33;;;;;;;62.87;36.43;;;;;;;4.90;97.53;101959.31;4987386;28;20200;-74
2022/11/29 09:28:01;;;;;;;60.33;35.23;;;;;;;4.95;97.10;101963.00;4990481;28;20202;-73
2022/11/29 09:30:30;;;;;;;67.53;38.13;;;;;;;4.99;97.04;101954.81;4989876;28;20285;-73
2022/11/29 09:32:59;;;;;;;60.63;35.67;;;;;;;5.02;97.00;101961.72;4988703;28;20191;-74
2022/11/29 09:35:25;;;;;;;61.47;36.47;;;;;;;4.95;96.58;101962.13;4989805;28;20274;-72
2022/11/29 09:37:50;;;;;;;61.80;37.10;;;;;;;4.93;96.62;101964.56;4988466;28;20279;-74
2022/11/29 09:40:20;;;;;;;60.87;34.70;;;;;;;4.94;96.92;101973.94;4988729;28;20604;-74
2022/11/29 09:42:51;;;;;;;59.53;35.07;;;;;;;4.99;97.10;101972.56;4976585;28;20650;-73
2022/11/29 09:45:27;;;;;;;62.40;38.20;;;;;;;5.00;96.69;101971.78;4989279;28;20183;-74
2022/11/29 09:48:30;;;;;;;60.47;35.87;;;;;;;5.03;96.95;101966.88;4989586;28;20195;-74
2022/11/29 09:51:23;;;;;;;62.37;36.07;;;;;;;5.02;96.48;101965.09;4988317;28;20223;-72
2022/11/29 09:54:03;;;;;;;60.20;36.13;;;;;;;5.07;96.93;101973.00;4988811;28;20180;-73
2022/11/29 09:56:41;;;;;;;64.63;37.00;;;;;;;5.09;96.79;101973.97;4987870;28;20187;-74
2022/11/29 09:59:20;;;;;;;63.47;37.70;;;;;;;5.13;96.51;101978.44;4987576;28;20187;-73
2022/11/29 10:02:02;;;;;;;61.70;35.60;;;;;;;5.14;96.46;101975.09;4987990;28;20187;-74
2022/11/29 10:04:35;;;;;;;61.83;37.47;;;;;;;5.11;96.41;101978.34;4969590;28;20684;-74
2022/11/29 10:07:13;;;;;;;60.20;36.03;;;;;;;5.13;96.61;101973.38;4989900;28;20224;-74
2022/11/29 10:10:16;;;;;;;60.60;37.50;;;;;;;5.15;96.06;101975.19;4987201;28;20278;-74
2022/11/29 10:13:07;;;;;;;60.97;37.07;;;;;;;5.14;95.97;101973.47;4986751;28;20668;-74
2022/11/29 10:15:39;;;;;;;60.20;36.67;;;;;;;5.16;96.37;101971.00;4977080;28;20695;-72
2022/11/29 10:18:31;;;;;;;62.20;37.60;;;;;;;5.20;96.46;101966.19;4986572;28;20744;-74
2022/11/29 10:21:03;;;;;;;61.57;37.87;;;;;;;5.21;95.79;101974.69;4987000;28;20593;-74
2022/11/29 10:23:36;;;;;;;64.63;39.83;;;;;;;5.25;95.95;101974.94;4983432;28;20207;-74
2022/11/29 10:26:06;;;;;;;64.70;37.93;;;;;;;5.22;96.11;101968.81;4983010;28;20203;-74
2022/11/29 10:28:34;;;;;;;59.97;37.37;;;;;;;5.31;95.67;101972.78;4983261;28;20191;-73
2022/11/29 10:31:26;;;;;;;60.20;37.97;;;;;;;5.39;95.74;101974.09;4989186;28;20585;-73
2022/11/29 10:33:53;;;;;;;59.50;36.30;;;;;;;5.47;96.00;101977.94;4988212;28;20560;-75
2022/11/29 10:36:40;;;;;;;63.37;37.93;;;;;;;5.45;96.25;101978.66;4988840;28;20684;-72
2022/11/29 10:39:14;;;;;;;65.70;37.50;;;;;;;5.43;96.04;101978.56;4985424;28;20188;-74
2022/11/29 10:41:39;;;;;;;62.03;37.50;;;;;;;5.46;96.16;101980.41;4975493;28;20263;-74
2022/11/29 10:44:05;;;;;;;62.73;38.50;;;;;;;5.42;95.37;101981.00;4984809;28;20254;-74
2022/11/29 10:46:33;;;;;;;62.47;37.57;;;;;;;5.44;95.62;101982.00;4986231;28;20192;-73
2022/11/29 10:49:03;;;;;;;60.60;37.63;;;;;;;5.45;95.38;101981.19;4987382;28;20184;-74
2022/11/29 10:51:30;;;;;;;60.73;37.27;;;;;;;5.47;95.89;101977.94;4985468;28;20196;-74
2022/11/29 10:54:01;;;;;;;62.10;37.70;;;;;;;5.48;95.73;101982.25;4983989;28;20929;-74
2022/11/29 10:56:34;;;;;;;61.33;37.83;;;;;;;5.50;95.38;101992.50;4987140;28;20210;-74
2022/11/29 10:59:08;;;;;;;57.30;36.03;;;;;;;5.46;95.52;101988.03;4986530;28;20557;-72
2022/11/29 11:01:40;;;;;;;63.03;38.17;;;;;;;5.45;95.72;101991.34;4988116;28;20567;-74
2022/11/29 11:04:09;;;;;;;58.40;37.37;;;;;;;5.47;95.29;101988.13;4989080;28;20358;-74
2022/11/29 11:06:43;;;;;;;61.33;37.77;;;;;;;5.48;95.00;101987.31;4986965;28;20227;-75
2022/11/29 11:09:15;;;;;;;59.90;35.83;;;;;;;5.47;95.53;101985.56;4982046;28;20199;-73
2022/11/29 11:11:50;;;;;;;60.17;35.63;;;;;;;5.50;95.46;101982.34;4982577;28;20209;-74
2022/11/29 11:14:28;;;;;;;60.33;36.27;;;;;;;5.55;95.68;101980.94;4992690;28;20187;-74
2022/11/29 11:16:54;;;;;;;58.93;36.37;;;;;;;5.54;95.56;101986.81;4990773;28;20200;-74
2022/11/29 11:19:30;;;;;;;64.50;37.10;;;;;;;5.56;95.20;101981.03;4995267;28;20230;-74
2022/11/29 11:21:58;;;;;;;61.17;36.63;;;;;;;5.52;95.00;101985.84;4988064;28;20218;-74
2022/11/29 11:24:28;;;;;;;61.90;37.10;;;;;;;5.58;95.66;101993.81;4991906;28;20202;-74
2022/11/29 11:26:54;;;;;;;63.10;36.67;;;;;;;5.59;95.61;101987.94;4990718;28;20234;-73
2022/11/29 11:29:23;;;;;;;58.97;36.47;;;;;;;5.58;95.59;101988.75;4991355;28;20246;-71
2022/11/29 11:31:55;;;;;;;65.07;37.83;;;;;;;5.50;95.47;101984.88;4989170;28;20191;-72
2022/11/29 11:34:25;;;;;;;64.03;38.10;;;;;;;5.55;95.22;101991.97;4983135;28;20236;-73
2022/11/29 11:36:52;;;;;;;61.23;36.73;;;;;;;5.58;94.88;101988.75;4991321;28;20199;-74
2022/11/29 11:39:22;;;;;;;60.93;36.00;;;;;;;5.62;95.63;101993.22;4992572;28;20227;-73
2022/11/29 11:44:39;;;;;;;56.67;35.83;;;;;;;5.60;95.62;101985.50;4991967;28;20204;-74
2022/11/29 11:47:12;;;;;;;62.90;37.10;;;;;;;5.62;95.65;101988.13;4990073;28;20739;-74
2022/11/29 11:50:00;;;;;;;62.83;36.37;;;;;;;5.55;95.53;101994.53;4988678;28;20218;-74
2022/11/29 11:52:52;;;;;;;67.00;38.70;;;;;;;5.58;95.73;101996.34;4991353;28;20304;-74
2022/11/29 11:55:21;;;;;;;63.70;37.43;;;;;;;5.58;95.79;101997.22;4990303;28;20192;-74
2022/11/29 11:58:04;;;;;;;66.27;39.23;;;;;;;5.58;95.57;101999.75;4990670;28;20192;-74
2022/11/29 12:00:48;;;;;;;66.60;38.93;;;;;;;5.59;95.41;102001.53;4990759;28;20219;-73